createdAt,value
2023-02-27T00:01:14.997Z,81.17
2023-02-27T00:03:42.075Z,81.31
2023-02-27T00:06:09.151Z,81.38
2023-02-27T00:08:36.337Z,81.04
2023-02-27T00:11:03.448Z,80.75
2023-02-27T00:13:30.485Z,81.06
2023-02-27T00:15:57.584Z,80.87
2023-02-27T00:18:24.813Z,81.26
2023-02-27T00:20:51.867Z,80.82
2023-02-27T00:23:18.957Z,80.49
2023-02-27T00:25:46.031Z,81.03
2023-02-27T00:28:13.325Z,81.50
2023-02-27T00:30:40.416Z,80.99
2023-02-27T00:33:07.889Z,80.99
2023-02-27T00:35:34.950Z,80.73
2023-02-27T00:38:02.482Z,80.43
2023-02-27T00:40:30.555Z,80.97
2023-02-27T00:42:57.614Z,80.57
2023-02-27T00:45:24.677Z,79.82
2023-02-27T00:47:51.933Z,80.43
2023-02-27T00:50:19.036Z,80.66
2023-02-27T00:52:46.081Z,81.11
2023-02-27T00:55:13.279Z,80.93
2023-02-27T00:57:40.771Z,80.83
2023-02-27T01:00:09.660Z,80.68
2023-02-27T01:02:37.169Z,80.63
2023-02-27T01:05:05.396Z,80.63
2023-02-27T01:07:32.507Z,80.40
2023-02-27T01:10:01.029Z,79.96
2023-02-27T01:12:28.136Z,80.12
2023-02-27T01:14:55.256Z,80.35
2023-02-27T01:17:22.319Z,79.74
2023-02-27T01:19:49.371Z,79.93
2023-02-27T01:22:16.655Z,80.53
2023-02-27T01:24:43.997Z,80.51
2023-02-27T01:27:11.619Z,80.59
2023-02-27T01:29:38.779Z,80.63
2023-02-27T01:32:06.072Z,80.74
2023-02-27T01:34:34.336Z,80.58
2023-02-27T01:37:02.525Z,80.29
2023-02-27T01:39:29.628Z,80.50
2023-02-27T01:41:56.690Z,80.72
2023-02-27T01:44:27.513Z,81.26
2023-02-27T01:46:55.177Z,80.64
2023-02-27T01:49:26.070Z,80.75
2023-02-27T01:52:06.095Z,80.20
2023-02-27T01:54:36.748Z,80.36
2023-02-27T01:57:06.696Z,79.86
2023-02-27T01:59:35.320Z,80.26
2023-02-27T02:02:05.314Z,79.99
2023-02-27T02:04:35.500Z,80.00
2023-02-27T02:07:09.704Z,79.75
2023-02-27T02:09:41.556Z,79.68
2023-02-27T02:12:10.591Z,80.49
2023-02-27T02:14:37.704Z,81.11
2023-02-27T02:17:29.052Z,80.73
2023-02-27T02:20:39.547Z,80.91
2023-02-27T02:23:29.035Z,80.98
2023-02-27T02:26:24.726Z,80.34
2023-02-27T02:29:16.379Z,79.47
2023-02-27T02:32:03.630Z,80.31
2023-02-27T02:34:52.661Z,80.64
2023-02-27T02:37:57.450Z,79.63
2023-02-27T02:40:44.257Z,80.03
2023-02-27T02:43:15.292Z,79.93
2023-02-27T02:45:55.274Z,79.73
2023-02-27T02:48:47.753Z,79.75
2023-02-27T02:51:38.986Z,79.93
2023-02-27T02:54:13.135Z,80.15
2023-02-27T02:56:45.966Z,79.19
2023-02-27T02:59:18.573Z,79.89
2023-02-27T03:02:09.764Z,79.90
2023-02-27T03:04:56.459Z,80.72
2023-02-27T03:07:46.488Z,79.95
2023-02-27T03:10:25.222Z,80.25
2023-02-27T03:12:58.793Z,80.64
2023-02-27T03:15:31.264Z,79.93
2023-02-27T03:17:58.210Z,79.73
2023-02-27T03:20:29.701Z,79.64
2023-02-27T03:23:00.438Z,79.34
2023-02-27T03:25:28.841Z,79.63
2023-02-27T03:28:00.553Z,79.42
2023-02-27T03:30:53.338Z,79.58
2023-02-27T03:33:25.414Z,79.10
2023-02-27T03:36:15.224Z,79.85
2023-02-27T03:38:48.355Z,80.08
2023-02-27T03:41:35.056Z,80.35
2023-02-27T03:44:09.342Z,80.40
2023-02-27T03:46:36.917Z,79.57
2023-02-27T03:49:04.656Z,80.29
2023-02-27T03:51:32.165Z,80.75
2023-02-27T03:54:09.714Z,80.49
2023-02-27T03:56:41.692Z,80.50
2023-02-27T03:59:08.762Z,80.15
2023-02-27T04:01:35.983Z,80.62
2023-02-27T04:04:07.005Z,80.87
2023-02-27T04:06:54.154Z,80.63
2023-02-27T04:09:52.073Z,81.06
2023-02-27T04:12:47.030Z,80.51
2023-02-27T04:15:46.178Z,80.67
2023-02-27T04:18:34.355Z,80.85
2023-02-27T04:21:08.467Z,81.20
2023-02-27T04:23:49.357Z,80.97
2023-02-27T04:26:30.752Z,80.73
2023-02-27T04:29:07.975Z,81.06
2023-02-27T04:31:46.222Z,80.59
2023-02-27T04:34:33.853Z,80.85
2023-02-27T04:37:10.651Z,80.78
2023-02-27T04:39:43.501Z,81.23
2023-02-27T04:42:15.451Z,80.31
2023-02-27T04:44:43.183Z,80.56
2023-02-27T04:47:12.025Z,80.79
2023-02-27T04:49:46.716Z,81.50
2023-02-27T04:52:33.320Z,80.80
2023-02-27T04:55:06.689Z,81.16
2023-02-27T04:57:48.986Z,80.33
2023-02-27T05:00:17.091Z,80.63
2023-02-27T05:02:47.656Z,80.94
2023-02-27T05:05:18.254Z,80.95
2023-02-27T05:07:50.555Z,80.65
2023-02-27T05:10:34.366Z,80.88
2023-02-27T05:13:06.746Z,80.58
2023-02-27T05:15:38.963Z,80.13
2023-02-27T05:18:08.469Z,80.67
2023-02-27T05:20:49.337Z,80.55
2023-02-27T05:23:23.084Z,80.37
2023-02-27T05:26:04.351Z,80.58
2023-02-27T05:28:44.978Z,79.79
2023-02-27T05:31:26.034Z,80.73
2023-02-27T05:34:05.884Z,80.44
2023-02-27T05:36:47.992Z,80.63
2023-02-27T05:39:15.653Z,80.58
2023-02-27T05:41:54.533Z,81.43
2023-02-27T05:44:24.012Z,81.20
2023-02-27T05:46:58.626Z,81.10
2023-02-27T05:49:35.966Z,81.10
2023-02-27T05:52:05.218Z,81.34
2023-02-27T05:54:37.275Z,80.89
2023-02-27T05:57:09.386Z,80.72
2023-02-27T05:59:58.584Z,80.38
2023-02-27T06:02:25.866Z,80.53
2023-02-27T06:04:53.004Z,80.30
2023-02-27T06:07:20.875Z,80.74
2023-02-27T06:09:48.221Z,81.58
2023-02-27T06:12:15.315Z,80.88
2023-02-27T06:14:42.365Z,81.13
2023-02-27T06:17:09.551Z,81.26
2023-02-27T06:19:36.593Z,81.69
2023-02-27T06:22:04.164Z,81.35
2023-02-27T06:24:31.190Z,80.75
2023-02-27T06:26:58.386Z,80.46
2023-02-27T06:29:25.436Z,80.53
2023-02-27T06:31:52.580Z,80.72
2023-02-27T06:34:19.659Z,80.24
2023-02-27T06:36:46.825Z,80.32
2023-02-27T06:39:13.837Z,80.33
2023-02-27T06:41:40.941Z,80.01
2023-02-27T06:44:08.048Z,79.91
2023-02-27T06:46:35.155Z,80.00
2023-02-27T06:49:02.241Z,79.36
2023-02-27T06:51:29.377Z,79.99
2023-02-27T06:53:56.464Z,79.96
2023-02-27T06:56:23.586Z,79.83
2023-02-27T06:58:50.635Z,80.08
2023-02-27T07:01:18.020Z,80.17
2023-02-27T07:03:45.144Z,80.12
2023-02-27T07:06:12.704Z,79.95
2023-02-27T07:08:54.444Z,79.35
2023-02-27T07:11:26.754Z,79.15
2023-02-27T07:13:53.852Z,79.44
2023-02-27T07:16:20.900Z,79.68
2023-02-27T07:18:47.973Z,79.23
2023-02-27T07:21:17.693Z,79.44
2023-02-27T07:23:44.762Z,79.72
2023-02-27T07:26:12.952Z,79.73
2023-02-27T07:28:40.081Z,80.01
2023-02-27T07:31:07.212Z,79.42
2023-02-27T07:33:34.368Z,79.36
2023-02-27T07:36:01.489Z,79.63
2023-02-27T07:38:28.913Z,79.20
2023-02-27T07:40:56.110Z,79.20
2023-02-27T07:43:23.651Z,79.12
2023-02-27T07:45:51.702Z,78.50
2023-02-27T07:48:19.126Z,78.30
2023-02-27T07:50:46.150Z,78.89
2023-02-27T07:53:13.526Z,77.69
2023-02-27T07:55:40.731Z,78.63
2023-02-27T07:58:07.811Z,78.44
2023-02-27T08:00:34.860Z,78.06
2023-02-27T08:03:02.007Z,77.40
2023-02-27T08:05:29.242Z,78.28
2023-02-27T08:07:56.332Z,77.05
2023-02-27T08:10:23.615Z,77.08
2023-02-27T08:12:50.936Z,76.50
2023-02-27T08:15:18.003Z,75.45
2023-02-27T08:17:45.798Z,77.25
2023-02-27T08:20:13.961Z,77.83
2023-02-27T08:22:41.323Z,77.25
2023-02-27T08:25:11.163Z,77.00
2023-02-27T08:27:38.835Z,76.67
2023-02-27T08:30:08.008Z,76.48
2023-02-27T08:32:35.317Z,76.49
2023-02-27T08:35:02.973Z,76.24
2023-02-27T08:37:30.075Z,75.20
2023-02-27T08:39:57.171Z,74.09
2023-02-27T08:42:26.563Z,74.23
2023-02-27T08:44:53.902Z,74.66
2023-02-27T08:47:21.956Z,74.44
2023-02-27T08:49:48.986Z,75.32
2023-02-27T08:52:16.080Z,75.03
2023-02-27T08:54:43.875Z,75.37
2023-02-27T08:57:10.958Z,75.07
2023-02-27T08:59:37.991Z,74.66
2023-02-27T09:02:05.142Z,75.02
2023-02-27T09:04:32.283Z,74.52
2023-02-27T09:06:59.417Z,74.10
2023-02-27T09:09:27.372Z,73.79
2023-02-27T09:11:54.468Z,74.41
2023-02-27T09:14:21.648Z,73.66
2023-02-27T09:16:48.753Z,74.04
2023-02-27T09:19:15.958Z,73.84
2023-02-27T09:21:43.140Z,74.71
2023-02-27T09:24:19.649Z,73.46
2023-02-27T09:26:48.439Z,74.07
2023-02-27T09:29:16.111Z,75.10
2023-02-27T09:31:43.302Z,74.10
2023-02-27T09:34:10.355Z,74.34
2023-02-27T09:36:37.444Z,73.60
2023-02-27T09:39:04.621Z,73.76
2023-02-27T09:41:54.159Z,74.14
2023-02-27T09:44:46.698Z,73.63
2023-02-27T09:47:26.781Z,73.92
2023-02-27T09:50:34.581Z,74.16
2023-02-27T09:53:01.831Z,72.97
2023-02-27T09:55:33.533Z,73.61
2023-02-27T09:58:08.005Z,73.60
2023-02-27T10:00:47.847Z,73.44
2023-02-27T10:03:47.259Z,73.32
2023-02-27T10:06:22.683Z,73.80
2023-02-27T10:08:56.078Z,73.52
2023-02-27T10:11:35.757Z,73.58
2023-02-27T10:14:33.611Z,72.94
2023-02-27T10:17:04.434Z,73.69
2023-02-27T10:19:34.389Z,74.06
2023-02-27T10:22:05.283Z,73.49
2023-02-27T10:24:38.158Z,73.90
2023-02-27T10:27:06.330Z,74.03
2023-02-27T10:29:39.858Z,73.57
2023-02-27T10:32:12.210Z,73.48
2023-02-27T10:34:41.791Z,74.65
2023-02-27T10:37:13.872Z,74.24
2023-02-27T10:39:54.422Z,74.05
2023-02-27T10:42:22.757Z,74.42
2023-02-27T10:44:53.614Z,74.77
2023-02-27T10:47:25.852Z,75.10
2023-02-27T10:49:54.418Z,74.53
2023-02-27T10:52:22.014Z,74.80
2023-02-27T10:54:49.316Z,76.17
2023-02-27T10:57:21.851Z,76.07
2023-02-27T10:59:59.914Z,76.73
2023-02-27T11:02:38.428Z,77.43
2023-02-27T11:05:08.080Z,77.57
2023-02-27T11:07:37.566Z,76.69
2023-02-27T11:10:10.705Z,77.23
2023-02-27T11:12:38.271Z,77.33
2023-02-27T11:15:14.088Z,77.23
2023-02-27T11:17:41.671Z,77.07
2023-02-27T11:20:34.580Z,78.16
2023-02-27T11:23:16.023Z,77.64
2023-02-27T11:25:43.794Z,78.29
2023-02-27T11:28:28.527Z,78.59
2023-02-27T11:30:57.152Z,78.67
2023-02-27T11:33:24.688Z,79.09
2023-02-27T11:35:57.452Z,78.42
2023-02-27T11:38:28.200Z,78.24
2023-02-27T11:40:57.880Z,78.79
2023-02-27T11:43:27.100Z,79.16
2023-02-27T11:46:17.062Z,79.47
2023-02-27T11:48:52.110Z,79.34
2023-02-27T11:51:35.822Z,79.34
2023-02-27T11:54:18.715Z,79.58
2023-02-27T11:56:54.044Z,80.04
2023-02-27T11:59:27.721Z,79.76
2023-02-27T12:02:32.769Z,80.24
2023-02-27T12:05:06.795Z,79.91
2023-02-27T12:07:42.878Z,79.54
2023-02-27T12:10:21.682Z,79.43
2023-02-27T12:13:05.214Z,79.57
2023-02-27T12:15:58.729Z,79.08
2023-02-27T12:18:50.613Z,79.91
2023-02-27T12:21:20.534Z,78.83
2023-02-27T12:23:55.788Z,79.21
2023-02-27T12:26:28.241Z,79.30
2023-02-27T12:28:59.611Z,79.43
2023-02-27T12:31:35.645Z,79.21
2023-02-27T12:34:16.774Z,79.01
2023-02-27T12:36:44.015Z,78.75
2023-02-27T12:39:22.250Z,78.54
2023-02-27T12:42:04.588Z,79.19
2023-02-27T12:45:09.229Z,80.11
2023-02-27T12:47:54.631Z,79.57
2023-02-27T12:50:23.246Z,79.32
2023-02-27T12:53:24.407Z,79.57
2023-02-27T12:55:56.141Z,78.96
2023-02-27T12:58:33.081Z,79.28
2023-02-27T13:01:15.505Z,79.43
2023-02-27T13:04:24.216Z,78.02
2023-02-27T13:07:13.604Z,79.16
2023-02-27T13:09:50.663Z,78.74
2023-02-27T13:12:25.686Z,78.14
2023-02-27T13:15:00.694Z,78.52
2023-02-27T13:17:45.871Z,77.98
2023-02-27T13:20:28.913Z,78.48
2023-02-27T13:22:58.944Z,78.02
2023-02-27T13:25:26.160Z,77.72
2023-02-27T13:28:06.797Z,77.98
2023-02-27T13:30:42.243Z,76.66
2023-02-27T13:33:24.153Z,76.28
2023-02-27T13:36:05.949Z,74.99
2023-02-27T13:38:52.111Z,76.25
2023-02-27T13:41:25.130Z,74.47
2023-02-27T13:43:59.235Z,75.06
2023-02-27T13:46:33.979Z,74.23
2023-02-27T13:49:03.997Z,74.58
2023-02-27T13:51:40.086Z,74.36
2023-02-27T13:54:13.183Z,73.52
2023-02-27T13:56:44.511Z,72.90
2023-02-27T13:59:13.379Z,73.52
2023-02-27T14:01:40.567Z,74.54
2023-02-27T14:04:08.374Z,74.57
2023-02-27T14:06:43.345Z,75.18
2023-02-27T14:09:15.363Z,74.62
2023-02-27T14:11:52.371Z,74.13
2023-02-27T14:14:37.782Z,73.37
2023-02-27T14:17:05.171Z,73.67
2023-02-27T14:19:41.310Z,73.49
2023-02-27T14:22:11.037Z,73.55
2023-02-27T14:25:01.006Z,72.11
2023-02-27T14:27:32.174Z,73.50
2023-02-27T14:30:03.837Z,73.39
2023-02-27T14:32:35.563Z,73.28
2023-02-27T14:35:05.437Z,72.08
2023-02-27T14:37:32.757Z,72.13
2023-02-27T14:40:03.188Z,71.49
2023-02-27T14:42:50.496Z,71.79
2023-02-27T14:45:24.542Z,72.36
2023-02-27T14:47:52.595Z,72.94
2023-02-27T14:50:28.527Z,72.63
2023-02-27T14:52:55.674Z,72.65
2023-02-27T14:55:29.510Z,72.99
2023-02-27T14:58:18.056Z,73.39
2023-02-27T15:00:58.455Z,73.01
2023-02-27T15:03:26.712Z,73.84
2023-02-27T15:05:55.474Z,73.25
2023-02-27T15:08:25.343Z,72.35
2023-02-27T15:10:53.585Z,72.79
2023-02-27T15:13:30.763Z,73.16
2023-02-27T15:16:25.829Z,73.75
2023-02-27T15:18:59.251Z,73.61
2023-02-27T15:21:29.506Z,72.55
2023-02-27T15:24:03.835Z,72.70
2023-02-27T15:26:35.123Z,73.41
2023-02-27T15:29:04.027Z,72.79
2023-02-27T15:31:32.208Z,72.95
2023-02-27T15:34:00.836Z,73.44
2023-02-27T15:36:31.298Z,72.70
2023-02-27T15:39:11.656Z,73.28
2023-02-27T15:41:38.924Z,73.96
2023-02-27T15:44:06.122Z,72.86
2023-02-27T15:46:33.462Z,72.86
2023-02-27T15:49:00.576Z,73.21
2023-02-27T15:51:28.887Z,73.34
2023-02-27T15:53:58.868Z,74.06
2023-02-27T15:56:32.892Z,73.22
2023-02-27T15:59:01.224Z,73.66
2023-02-27T16:01:32.322Z,73.59
2023-02-27T16:04:01.901Z,74.15
2023-02-27T16:06:38.245Z,73.90
2023-02-27T16:09:24.986Z,74.66
2023-02-27T16:12:23.427Z,74.83
2023-02-27T16:14:52.811Z,73.69
2023-02-27T16:17:23.330Z,73.98
2023-02-27T16:19:50.435Z,74.25
2023-02-27T16:22:20.082Z,74.64
2023-02-27T16:24:47.872Z,75.02
2023-02-27T16:27:33.320Z,74.76
2023-02-27T16:30:02.551Z,74.53
2023-02-27T16:32:36.567Z,74.61
2023-02-27T16:35:07.373Z,74.24
2023-02-27T16:37:40.009Z,74.71
2023-02-27T16:40:22.421Z,74.67
2023-02-27T16:42:50.269Z,74.77
2023-02-27T16:45:25.102Z,75.44
2023-02-27T16:47:57.192Z,75.42
2023-02-27T16:50:39.087Z,75.45
2023-02-27T16:53:06.609Z,75.36
2023-02-27T16:55:34.023Z,74.88
2023-02-27T16:58:01.130Z,75.01
2023-02-27T17:00:28.613Z,75.34
2023-02-27T17:02:55.733Z,75.08
2023-02-27T17:05:24.179Z,75.45
2023-02-27T17:07:51.269Z,75.34
2023-02-27T17:10:22.146Z,75.53
2023-02-27T17:12:49.251Z,76.69
2023-02-27T17:15:16.922Z,76.30
2023-02-27T17:17:44.589Z,76.86
2023-02-27T17:20:13.335Z,77.86
2023-02-27T17:22:42.768Z,78.13
2023-02-27T17:25:10.663Z,77.61
2023-02-27T17:27:37.747Z,77.68
2023-02-27T17:30:06.347Z,78.45
2023-02-27T17:32:34.526Z,78.39
2023-02-27T17:35:01.727Z,78.18
2023-02-27T17:37:28.916Z,78.26
2023-02-27T17:39:56.091Z,78.23
2023-02-27T17:42:25.779Z,78.68
2023-02-27T17:44:53.206Z,79.03
2023-02-27T17:47:20.298Z,79.70
2023-02-27T17:49:47.483Z,79.74
2023-02-27T17:52:14.835Z,79.56
2023-02-27T17:54:41.887Z,79.79
2023-02-27T17:57:10.442Z,80.14
2023-02-27T17:59:37.650Z,79.86
2023-02-27T18:02:04.667Z,79.59
2023-02-27T18:04:31.875Z,79.33
2023-02-27T18:06:58.972Z,79.91
2023-02-27T18:09:26.035Z,79.73
2023-02-27T18:11:53.081Z,79.81
2023-02-27T18:14:20.183Z,79.72
2023-02-27T18:16:47.356Z,79.53
2023-02-27T18:19:14.517Z,79.30
2023-02-27T18:21:42.722Z,79.40
2023-02-27T18:24:09.787Z,79.16
2023-02-27T18:26:37.265Z,79.82
2023-02-27T18:29:07.281Z,79.80
2023-02-27T18:31:42.741Z,79.65
2023-02-27T18:34:10.282Z,79.79
2023-02-27T18:36:38.048Z,79.67
2023-02-27T18:39:06.003Z,80.15
2023-02-27T18:41:33.672Z,79.75
2023-02-27T18:44:00.742Z,79.99
2023-02-27T18:46:28.275Z,79.64
2023-02-27T18:48:55.763Z,79.76
2023-02-27T18:51:22.993Z,79.95
2023-02-27T18:53:50.855Z,79.16
2023-02-27T18:56:21.315Z,79.35
2023-02-27T18:58:49.011Z,79.73
2023-02-27T19:01:27.368Z,79.84
2023-02-27T19:04:00.228Z,79.53
2023-02-27T19:06:28.114Z,79.52
2023-02-27T19:08:55.580Z,79.54
2023-02-27T19:11:32.886Z,79.70
2023-02-27T19:14:04.890Z,79.42
2023-02-27T19:16:33.015Z,78.58
2023-02-27T19:19:01.901Z,78.88
2023-02-27T19:21:29.231Z,79.13
2023-02-27T19:23:56.657Z,78.89
2023-02-27T19:26:24.440Z,78.51
2023-02-27T19:28:55.590Z,78.68
2023-02-27T19:31:24.112Z,78.86
2023-02-27T19:33:51.418Z,78.79
2023-02-27T19:36:20.891Z,78.81
2023-02-27T19:38:48.557Z,79.00
2023-02-27T19:41:16.888Z,79.07
2023-02-27T19:43:44.434Z,78.95
2023-02-27T19:46:14.302Z,79.14
2023-02-27T19:48:41.480Z,78.99
2023-02-27T19:51:10.651Z,79.25
2023-02-27T19:53:39.891Z,78.32
2023-02-27T19:56:09.521Z,78.49
2023-02-27T19:58:37.034Z,78.81
2023-02-27T20:01:04.881Z,78.12
2023-02-27T20:03:32.921Z,79.04
2023-02-27T20:06:00.209Z,79.20
2023-02-27T20:08:27.578Z,78.94
2023-02-27T20:10:59.912Z,78.30
2023-02-27T20:13:27.465Z,78.64
2023-02-27T20:15:58.754Z,79.12
2023-02-27T20:18:27.552Z,79.26
2023-02-27T20:21:03.246Z,78.84
2023-02-27T20:23:31.896Z,78.54
2023-02-27T20:25:58.989Z,78.01
2023-02-27T20:28:28.044Z,78.55
2023-02-27T20:30:55.354Z,78.97
2023-02-27T20:33:22.501Z,79.23
2023-02-27T20:35:49.580Z,79.41
2023-02-27T20:38:19.880Z,79.25
2023-02-27T20:40:46.953Z,78.25
2023-02-27T20:43:14.023Z,78.01
2023-02-27T20:45:41.936Z,78.82
2023-02-27T20:48:09.290Z,78.96
2023-02-27T20:50:36.558Z,78.53
2023-02-27T20:53:03.635Z,78.44
2023-02-27T20:55:31.007Z,78.32
2023-02-27T20:57:58.073Z,78.90
2023-02-27T21:00:26.802Z,78.57
2023-02-27T21:02:54.292Z,78.64
2023-02-27T21:05:21.438Z,78.15
2023-02-27T21:07:48.602Z,78.26
2023-02-27T21:10:15.735Z,78.83
2023-02-27T21:12:44.821Z,79.00
2023-02-27T21:15:12.183Z,79.16
2023-02-27T21:17:39.217Z,79.20
2023-02-27T21:20:07.067Z,79.01
2023-02-27T21:22:35.010Z,79.44
2023-02-27T21:25:02.023Z,79.04
2023-02-27T21:27:29.111Z,79.64
2023-02-27T21:29:56.152Z,79.22
2023-02-27T21:32:23.294Z,79.16
2023-02-27T21:34:50.704Z,79.61
2023-02-27T21:37:18.489Z,79.20
2023-02-27T21:39:50.381Z,79.21
2023-02-27T21:42:17.763Z,78.82
2023-02-27T21:44:44.813Z,78.31
2023-02-27T21:47:11.917Z,78.42
2023-02-27T21:49:39.369Z,78.40
2023-02-27T21:52:06.489Z,78.45
2023-02-27T21:54:33.670Z,78.92
2023-02-27T21:57:03.117Z,78.39
2023-02-27T21:59:30.886Z,78.55
2023-02-27T22:01:58.109Z,78.48
2023-02-27T22:04:25.978Z,78.23
2023-02-27T22:06:53.256Z,78.41
2023-02-27T22:09:20.834Z,78.86
2023-02-27T22:11:48.397Z,78.81
2023-02-27T22:14:15.508Z,78.92
2023-02-27T22:16:42.668Z,78.72
2023-02-27T22:19:14.831Z,79.28
2023-02-27T22:21:41.920Z,78.78
2023-02-27T22:24:09.028Z,78.12
2023-02-27T22:26:36.532Z,78.28
2023-02-27T22:29:04.381Z,78.41
2023-02-27T22:31:34.084Z,77.97
2023-02-27T22:34:10.676Z,78.42
2023-02-27T22:36:38.333Z,78.12
2023-02-27T22:39:05.899Z,78.43
2023-02-27T22:41:35.793Z,77.79
2023-02-27T22:44:04.120Z,77.98
2023-02-27T22:46:33.424Z,77.56
2023-02-27T22:49:03.023Z,77.82
2023-02-27T22:51:30.636Z,78.38
2023-02-27T22:53:59.929Z,78.08
2023-02-27T22:56:27.779Z,78.30
2023-02-27T22:58:54.802Z,78.48
2023-02-27T23:01:24.412Z,77.96
2023-02-27T23:03:53.387Z,78.02
2023-02-27T23:06:24.112Z,77.79
2023-02-27T23:08:51.741Z,77.96
2023-02-27T23:11:19.986Z,78.31
2023-02-27T23:13:47.040Z,77.58
2023-02-27T23:16:14.570Z,77.52
2023-02-27T23:18:46.988Z,78.29
2023-02-27T23:21:16.392Z,77.54
2023-02-27T23:23:43.740Z,77.41
2023-02-27T23:26:11.439Z,77.96
2023-02-27T23:28:38.921Z,78.34
2023-02-27T23:31:07.136Z,78.20
2023-02-27T23:33:34.553Z,77.96
2023-02-27T23:36:01.775Z,78.01
2023-02-27T23:38:29.149Z,77.81
2023-02-27T23:40:56.515Z,77.82
2023-02-27T23:43:24.003Z,77.73
2023-02-27T23:45:51.428Z,77.83
2023-02-27T23:48:21.759Z,77.91
2023-02-27T23:50:48.937Z,77.62
2023-02-27T23:53:16.013Z,77.85
2023-02-27T23:55:44.067Z,77.79
2023-02-27T23:58:11.376Z,77.65
